sensor_id;sensor_type;location;lat;lon;timestamp;temperature;humidity
4002;DHT22;2015;48.670;9.060;2024-03-23T00:53:08;8.60;99.90
4002;DHT22;2015;48.670;9.060;2024-03-23T00:55:39;8.70;99.90
4002;DHT22;2015;48.670;9.060;2024-03-23T00:58:10;8.60;99.90
4002;DHT22;2015;48.670;9.060;2024-03-23T01:00:40;8.60;99.90
4002;DHT22;2015;48.670;9.060;2024-03-23T01:03:11;8.60;99.90
4002;DHT22;2015;48.670;9.060;2024-03-23T01:05:42;8.50;99.90
4002;DHT22;2015;48.670;9.060;2024-03-23T01:08:13;8.50;99.90
4002;DHT22;2015;48.670;9.060;2024-03-23T01:10:54;8.40;99.90
4002;DHT22;2015;48.670;9.060;2024-03-23T01:13:25;8.50;99.90
4002;DHT22;2015;48.670;9.060;2024-03-23T01:15:56;8.50;99.90
4002;DHT22;2015;48.670;9.060;2024-03-23T01:18:27;8.50;99.90
4002;DHT22;2015;48.670;9.060;2024-03-23T01:20:58;8.50;99.90
4002;DHT22;2015;48.670;9.060;2024-03-23T01:23:29;8.40;99.90
4002;DHT22;2015;48.670;9.060;2024-03-23T01:26:00;8.40;99.90
4002;DHT22;2015;48.670;9.060;2024-03-23T01:28:30;8.30;99.90
4002;DHT22;2015;48.670;9.060;2024-03-23T01:31:01;8.30;99.90
4002;DHT22;2015;48.670;9.060;2024-03-23T01:33:32;8.30;99.90
4002;DHT22;2015;48.670;9.060;2024-03-23T01:36:03;8.20;99.90
4002;DHT22;2015;48.670;9.060;2024-03-23T01:38:34;8.30;99.90
4002;DHT22;2015;48.670;9.060;2024-03-23T01:41:05;8.40;99.90
4002;DHT22;2015;48.670;9.060;2024-03-23T01:43:35;8.40;99.90
4002;DHT22;2015;48.670;9.060;2024-03-23T01:46:06;8.50;99.90
4002;DHT22;2015;48.670;9.060;2024-03-23T01:48:37;8.60;99.90
4002;DHT22;2015;48.670;9.060;2024-03-23T01:51:08;8.60;99.90
4002;DHT22;2015;48.670;9.060;2024-03-23T01:53:39;8.50;99.90
4002;DHT22;2015;48.670;9.060;2024-03-23T01:56:10;8.50;99.90
4002;DHT22;2015;48.670;9.060;2024-03-23T01:58:41;8.50;99.90
4002;DHT22;2015;48.670;9.060;2024-03-23T02:01:11;8.50;99.90
4002;DHT22;2015;48.670;9.060;2024-03-23T02:03:42;8.50;99.90
4002;DHT22;2015;48.670;9.060;2024-03-23T02:06:13;8.50;99.90
4002;DHT22;2015;48.670;9.060;2024-03-23T02:08:44;8.50;99.90
4002;DHT22;2015;48.670;9.060;2024-03-23T02:11:15;8.50;99.90
4002;DHT22;2015;48.670;9.060;2024-03-23T02:13:45;8.90;99.90
4002;DHT22;2015;48.670;9.060;2024-03-23T02:16:16;9.30;99.90
4002;DHT22;2015;48.670;9.060;2024-03-23T02:18:47;9.70;99.90
4002;DHT22;2015;48.670;9.060;2024-03-23T02:21:18;10.00;99.90
4002;DHT22;2015;48.670;9.060;2024-03-23T02:23:48;10.10;99.90
4002;DHT22;2015;48.670;9.060;2024-03-23T02:26:19;10.20;99.90
4002;DHT22;2015;48.670;9.060;2024-03-23T02:28:50;10.10;99.90
4002;DHT22;2015;48.670;9.060;2024-03-23T02:31:21;10.10;99.90
4002;DHT22;2015;48.670;9.060;2024-03-23T02:33:51;10.20;99.90
4002;DHT22;2015;48.670;9.060;2024-03-23T02:36:22;10.00;99.90
4002;DHT22;2015;48.670;9.060;2024-03-23T02:38:53;10.10;99.90
4002;DHT22;2015;48.670;9.060;2024-03-23T02:41:24;10.20;99.90
4002;DHT22;2015;48.670;9.060;2024-03-23T02:43:54;10.20;99.90
4002;DHT22;2015;48.670;9.060;2024-03-23T02:46:25;10.20;99.90
4002;DHT22;2015;48.670;9.060;2024-03-23T02:48:56;10.30;99.90
4002;DHT22;2015;48.670;9.060;2024-03-23T02:51:27;10.30;99.90
4002;DHT22;2015;48.670;9.060;2024-03-23T02:53:58;10.20;99.90
4002;DHT22;2015;48.670;9.060;2024-03-23T02:56:28;10.00;99.90
4002;DHT22;2015;48.670;9.060;2024-03-23T02:58:59;9.80;99.90
4002;DHT22;2015;48.670;9.060;2024-03-23T03:01:30;9.60;99.90
4002;DHT22;2015;48.670;9.060;2024-03-23T03:04:01;9.70;99.90
4002;DHT22;2015;48.670;9.060;2024-03-23T03:06:32;9.70;99.90
4002;DHT22;2015;48.670;9.060;2024-03-23T03:09:03;9.70;99.90
4002;DHT22;2015;48.670;9.060;2024-03-23T03:11:33;9.80;99.90
4002;DHT22;2015;48.670;9.060;2024-03-23T03:14:04;9.80;99.90
4002;DHT22;2015;48.670;9.060;2024-03-23T03:16:37;9.80;99.90
4002;DHT22;2015;48.670;9.060;2024-03-23T03:19:08;9.80;99.90
4002;DHT22;2015;48.670;9.060;2024-03-23T03:21:41;9.80;99.90
4002;DHT22;2015;48.670;9.060;2024-03-23T03:24:11;9.60;99.90
4002;DHT22;2015;48.670;9.060;2024-03-23T03:26:42;9.60;99.90
4002;DHT22;2015;48.670;9.060;2024-03-23T03:29:13;9.60;99.90
4002;DHT22;2015;48.670;9.060;2024-03-23T03:31:44;9.60;99.90
4002;DHT22;2015;48.670;9.060;2024-03-23T03:34:15;9.60;99.90
4002;DHT22;2015;48.670;9.060;2024-03-23T03:36:46;9.70;99.90
4002;DHT22;2015;48.670;9.060;2024-03-23T03:39:17;9.70;99.90
4002;DHT22;2015;48.670;9.060;2024-03-23T03:41:48;9.70;99.90
4002;DHT22;2015;48.670;9.060;2024-03-23T03:44:18;9.60;99.90
4002;DHT22;2015;48.670;9.060;2024-03-23T03:46:49;9.60;99.90
4002;DHT22;2015;48.670;9.060;2024-03-23T03:49:20;9.30;99.90
4002;DHT22;2015;48.670;9.060;2024-03-23T03:51:51;9.00;99.90
4002;DHT22;2015;48.670;9.060;2024-03-23T03:54:21;8.80;99.90
4002;DHT22;2015;48.670;9.060;2024-03-23T03:56:52;8.70;99.90
4002;DHT22;2015;48.670;9.060;2024-03-23T03:59:23;8.60;99.90
4002;DHT22;2015;48.670;9.060;2024-03-23T04:01:54;8.40;99.90
4002;DHT22;2015;48.670;9.060;2024-03-23T04:04:25;8.30;99.90
4002;DHT22;2015;48.670;9.060;2024-03-23T04:07:00;8.20;99.90
4002;DHT22;2015;48.670;9.060;2024-03-23T04:09:31;8.10;99.90
4002;DHT22;2015;48.670;9.060;2024-03-23T04:12:01;8.10;99.90
4002;DHT22;2015;48.670;9.060;2024-03-23T04:14:32;8.00;99.90
4002;DHT22;2015;48.670;9.060;2024-03-23T04:17:03;8.00;99.90
4002;DHT22;2015;48.670;9.060;2024-03-23T04:19:34;8.00;99.90
4002;DHT22;2015;48.670;9.060;2024-03-23T04:22:05;8.00;99.90
4002;DHT22;2015;48.670;9.060;2024-03-23T04:24:35;8.00;99.90
4002;DHT22;2015;48.670;9.060;2024-03-23T04:27:06;7.90;99.90
4002;DHT22;2015;48.670;9.060;2024-03-23T04:29:37;8.00;99.90
4002;DHT22;2015;48.670;9.060;2024-03-23T04:32:08;7.90;99.90
4002;DHT22;2015;48.670;9.060;2024-03-23T04:34:38;7.90;99.90
4002;DHT22;2015;48.670;9.060;2024-03-23T04:37:09;7.90;99.90
4002;DHT22;2015;48.670;9.060;2024-03-23T04:39:40;7.90;99.90
4002;DHT22;2015;48.670;9.060;2024-03-23T04:42:11;8.00;99.90
4002;DHT22;2015;48.670;9.060;2024-03-23T04:44:42;7.90;99.90
4002;DHT22;2015;48.670;9.060;2024-03-23T04:47:13;8.00;99.90
4002;DHT22;2015;48.670;9.060;2024-03-23T04:49:44;8.10;99.90
4002;DHT22;2015;48.670;9.060;2024-03-23T04:52:15;8.20;99.90
4002;DHT22;2015;48.670;9.060;2024-03-23T04:54:46;8.30;99.90
4002;DHT22;2015;48.670;9.060;2024-03-23T04:57:17;8.50;99.90
4002;DHT22;2015;48.670;9.060;2024-03-23T04:59:48;8.90;99.90
4002;DHT22;2015;48.670;9.060;2024-03-23T05:02:19;8.90;99.90
4002;DHT22;2015;48.670;9.060;2024-03-23T05:04:49;9.00;99.90
4002;DHT22;2015;48.670;9.060;2024-03-23T05:07:20;9.00;99.90
4002;DHT22;2015;48.670;9.060;2024-03-23T05:09:51;8.90;99.90
4002;DHT22;2015;48.670;9.060;2024-03-23T05:12:22;8.90;99.90
4002;DHT22;2015;48.670;9.060;2024-03-23T05:14:53;8.80;99.90
4002;DHT22;2015;48.670;9.060;2024-03-23T05:17:23;8.90;99.90
4002;DHT22;2015;48.670;9.060;2024-03-23T05:19:54;8.90;99.90
4002;DHT22;2015;48.670;9.060;2024-03-23T05:22:25;8.90;99.90
4002;DHT22;2015;48.670;9.060;2024-03-23T05:24:57;8.90;99.90
4002;DHT22;2015;48.670;9.060;2024-03-23T05:27:28;8.90;99.90
4002;DHT22;2015;48.670;9.060;2024-03-23T05:29:59;9.00;99.90
4002;DHT22;2015;48.670;9.060;2024-03-23T05:32:30;9.00;99.90
4002;DHT22;2015;48.670;9.060;2024-03-23T05:35:00;9.00;99.90
4002;DHT22;2015;48.670;9.060;2024-03-23T05:37:31;9.00;99.90
4002;DHT22;2015;48.670;9.060;2024-03-23T05:40:04;9.00;99.90
4002;DHT22;2015;48.670;9.060;2024-03-23T05:42:35;8.90;99.90
4002;DHT22;2015;48.670;9.060;2024-03-23T05:45:07;8.90;99.90
4002;DHT22;2015;48.670;9.060;2024-03-23T05:47:38;8.90;99.90
4002;DHT22;2015;48.670;9.060;2024-03-23T05:50:09;8.90;99.90
4002;DHT22;2015;48.670;9.060;2024-03-23T05:52:43;8.90;99.90
4002;DHT22;2015;48.670;9.060;2024-03-23T05:55:14;8.90;99.90
4002;DHT22;2015;48.670;9.060;2024-03-23T05:57:45;8.90;99.90
4002;DHT22;2015;48.670;9.060;2024-03-23T06:00:16;8.90;99.90
4002;DHT22;2015;48.670;9.060;2024-03-23T06:02:46;8.90;99.90
4002;DHT22;2015;48.670;9.060;2024-03-23T06:05:17;8.80;99.90
4002;DHT22;2015;48.670;9.060;2024-03-23T06:07:48;8.80;99.90
4002;DHT22;2015;48.670;9.060;2024-03-23T06:10:20;8.80;99.90
4002;DHT22;2015;48.670;9.060;2024-03-23T06:12:51;8.70;99.90
4002;DHT22;2015;48.670;9.060;2024-03-23T06:15:22;8.70;99.90
4002;DHT22;2015;48.670;9.060;2024-03-23T06:17:53;8.60;99.90
4002;DHT22;2015;48.670;9.060;2024-03-23T06:20:24;8.50;99.90
4002;DHT22;2015;48.670;9.060;2024-03-23T06:22:55;8.50;99.90
4002;DHT22;2015;48.670;9.060;2024-03-23T06:25:26;8.50;99.90
4002;DHT22;2015;48.670;9.060;2024-03-23T06:27:56;8.50;99.90
4002;DHT22;2015;48.670;9.060;2024-03-23T06:30:28;8.40;99.90
4002;DHT22;2015;48.670;9.060;2024-03-23T06:33:00;8.40;99.90
4002;DHT22;2015;48.670;9.060;2024-03-23T06:35:31;8.30;99.90
4002;DHT22;2015;48.670;9.060;2024-03-23T06:38:01;8.40;99.90
4002;DHT22;2015;48.670;9.060;2024-03-23T06:40:32;8.30;99.90
4002;DHT22;2015;48.670;9.060;2024-03-23T06:43:03;8.20;99.90
4002;DHT22;2015;48.670;9.060;2024-03-23T06:45:34;8.10;99.90
4002;DHT22;2015;48.670;9.060;2024-03-23T06:48:05;8.10;99.90
4002;DHT22;2015;48.670;9.060;2024-03-23T06:50:38;8.10;99.90
4002;DHT22;2015;48.670;9.060;2024-03-23T06:53:09;8.10;99.90
4002;DHT22;2015;48.670;9.060;2024-03-23T06:55:40;8.10;99.90
4002;DHT22;2015;48.670;9.060;2024-03-23T06:58:11;8.10;99.90
4002;DHT22;2015;48.670;9.060;2024-03-23T07:00:42;8.10;99.90
4002;DHT22;2015;48.670;9.060;2024-03-23T07:03:12;8.10;99.90
4002;DHT22;2015;48.670;9.060;2024-03-23T07:05:43;8.10;99.90
4002;DHT22;2015;48.670;9.060;2024-03-23T07:08:14;8.20;99.90
4002;DHT22;2015;48.670;9.060;2024-03-23T07:10:49;8.30;99.90
4002;DHT22;2015;48.670;9.060;2024-03-23T07:13:20;8.30;99.90
4002;DHT22;2015;48.670;9.060;2024-03-23T07:15:54;8.40;99.90
4002;DHT22;2015;48.670;9.060;2024-03-23T07:18:26;8.30;99.90
4002;DHT22;2015;48.670;9.060;2024-03-23T07:20:57;8.40;99.90
4002;DHT22;2015;48.670;9.060;2024-03-23T07:23:28;8.50;99.90
4002;DHT22;2015;48.670;9.060;2024-03-23T07:26:02;8.50;99.90
4002;DHT22;2015;48.670;9.060;2024-03-23T07:28:34;8.40;99.90
4002;DHT22;2015;48.670;9.060;2024-03-23T07:31:08;8.40;99.90
4002;DHT22;2015;48.670;9.060;2024-03-23T07:33:46;8.50;99.90
4002;DHT22;2015;48.670;9.060;2024-03-23T07:36:17;8.50;99.90
4002;DHT22;2015;48.670;9.060;2024-03-23T07:38:48;8.50;99.90
4002;DHT22;2015;48.670;9.060;2024-03-23T07:41:20;8.30;99.90
4002;DHT22;2015;48.670;9.060;2024-03-23T07:43:51;8.30;99.90
4002;DHT22;2015;48.670;9.060;2024-03-23T07:46:22;8.40;99.90
4002;DHT22;2015;48.670;9.060;2024-03-23T07:48:53;8.40;99.90
4002;DHT22;2015;48.670;9.060;2024-03-23T07:51:24;8.50;99.90
4002;DHT22;2015;48.670;9.060;2024-03-23T07:53:55;8.40;99.90
4002;DHT22;2015;48.670;9.060;2024-03-23T07:56:26;8.40;99.90
4002;DHT22;2015;48.670;9.060;2024-03-23T07:58:56;8.30;99.90
4002;DHT22;2015;48.670;9.060;2024-03-23T08:01:27;8.40;99.90
4002;DHT22;2015;48.670;9.060;2024-03-23T08:03:58;8.30;99.90
4002;DHT22;2015;48.670;9.060;2024-03-23T08:06:29;8.20;99.90
4002;DHT22;2015;48.670;9.060;2024-03-23T08:09:00;8.10;99.90
4002;DHT22;2015;48.670;9.060;2024-03-23T08:11:32;8.10;99.90
4002;DHT22;2015;48.670;9.060;2024-03-23T08:14:05;8.20;99.90
4002;DHT22;2015;48.670;9.060;2024-03-23T08:16:36;8.40;99.90
4002;DHT22;2015;48.670;9.060;2024-03-23T08:19:07;8.50;99.90
4002;DHT22;2015;48.670;9.060;2024-03-23T08:21:39;8.40;99.90
4002;DHT22;2015;48.670;9.060;2024-03-23T08:24:10;8.30;99.90
4002;DHT22;2015;48.670;9.060;2024-03-23T08:26:40;8.50;99.90
4002;DHT22;2015;48.670;9.060;2024-03-23T08:29:11;8.40;99.90
4002;DHT22;2015;48.670;9.060;2024-03-23T08:31:42;8.30;99.90
4002;DHT22;2015;48.670;9.060;2024-03-23T08:34:13;8.40;99.90
4002;DHT22;2015;48.670;9.060;2024-03-23T08:36:43;8.30;99.90
4002;DHT22;2015;48.670;9.060;2024-03-23T08:39:14;8.30;99.90
4002;DHT22;2015;48.670;9.060;2024-03-23T08:41:45;8.40;99.90
4002;DHT22;2015;48.670;9.060;2024-03-23T08:44:16;8.50;99.90
4002;DHT22;2015;48.670;9.060;2024-03-23T08:46:47;8.40;99.90
4002;DHT22;2015;48.670;9.060;2024-03-23T08:49:18;8.40;99.90
4002;DHT22;2015;48.670;9.060;2024-03-23T08:51:49;8.40;99.90
4002;DHT22;2015;48.670;9.060;2024-03-23T08:54:19;8.50;99.90
4002;DHT22;2015;48.670;9.060;2024-03-23T08:56:50;8.60;99.90
4002;DHT22;2015;48.670;9.060;2024-03-23T08:59:21;8.60;99.90
4002;DHT22;2015;48.670;9.060;2024-03-23T09:01:54;8.60;99.90
4002;DHT22;2015;48.670;9.060;2024-03-23T09:04:25;8.60;99.90
4002;DHT22;2015;48.670;9.060;2024-03-23T09:06:55;8.50;99.90
4002;DHT22;2015;48.670;9.060;2024-03-23T09:09:28;8.30;99.90
4002;DHT22;2015;48.670;9.060;2024-03-23T09:11:58;8.10;99.90
4002;DHT22;2015;48.670;9.060;2024-03-23T09:14:29;7.90;99.90
4002;DHT22;2015;48.670;9.060;2024-03-23T09:17:00;7.90;99.90
4002;DHT22;2015;48.670;9.060;2024-03-23T09:19:31;7.90;99.90
4002;DHT22;2015;48.670;9.060;2024-03-23T09:22:01;8.20;99.90
4002;DHT22;2015;48.670;9.060;2024-03-23T09:24:32;8.50;99.90
4002;DHT22;2015;48.670;9.060;2024-03-23T09:27:03;8.70;99.90
4002;DHT22;2015;48.670;9.060;2024-03-23T09:29:34;8.80;99.90
4002;DHT22;2015;48.670;9.060;2024-03-23T09:32:05;8.90;99.90
4002;DHT22;2015;48.670;9.060;2024-03-23T09:34:36;8.90;99.90
4002;DHT22;2015;48.670;9.060;2024-03-23T09:37:06;8.90;99.90
4002;DHT22;2015;48.670;9.060;2024-03-23T09:39:37;9.20;99.90
4002;DHT22;2015;48.670;9.060;2024-03-23T09:42:08;8.70;99.90
4002;DHT22;2015;48.670;9.060;2024-03-23T09:44:39;8.60;99.90
4002;DHT22;2015;48.670;9.060;2024-03-23T09:47:10;8.70;99.90
4002;DHT22;2015;48.670;9.060;2024-03-23T09:49:40;8.80;99.90
4002;DHT22;2015;48.670;9.060;2024-03-23T09:52:11;8.80;99.90
4002;DHT22;2015;48.670;9.060;2024-03-23T09:54:42;8.80;99.90
4002;DHT22;2015;48.670;9.060;2024-03-23T09:57:13;8.90;99.90
4002;DHT22;2015;48.670;9.060;2024-03-23T09:59:44;9.00;99.90
4002;DHT22;2015;48.670;9.060;2024-03-23T10:02:16;9.00;99.90
4002;DHT22;2015;48.670;9.060;2024-03-23T10:04:47;9.10;99.90
4002;DHT22;2015;48.670;9.060;2024-03-23T10:07:20;10.10;99.90
4002;DHT22;2015;48.670;9.060;2024-03-23T10:09:51;11.60;99.90
4002;DHT22;2015;48.670;9.060;2024-03-23T10:12:23;12.70;99.90
4002;DHT22;2015;48.670;9.060;2024-03-23T10:14:55;13.60;99.90
4002;DHT22;2015;48.670;9.060;2024-03-23T10:17:25;13.70;99.90
4002;DHT22;2015;48.670;9.060;2024-03-23T10:19:56;13.10;99.90
4002;DHT22;2015;48.670;9.060;2024-03-23T10:22:27;12.50;99.90
4002;DHT22;2015;48.670;9.060;2024-03-23T10:25:10;12.30;99.90
4002;DHT22;2015;48.670;9.060;2024-03-23T10:27:41;12.00;99.90
4002;DHT22;2015;48.670;9.060;2024-03-23T10:30:14;11.50;99.90
4002;DHT22;2015;48.670;9.060;2024-03-23T10:32:45;11.20;99.90
4002;DHT22;2015;48.670;9.060;2024-03-23T10:35:18;10.90;99.90
4002;DHT22;2015;48.670;9.060;2024-03-23T10:37:55;10.30;99.90
4002;DHT22;2015;48.670;9.060;2024-03-23T10:40:28;10.20;99.90
4002;DHT22;2015;48.670;9.060;2024-03-23T10:43:00;10.00;99.90
4002;DHT22;2015;48.670;9.060;2024-03-23T10:45:32;9.90;99.90
4002;DHT22;2015;48.670;9.060;2024-03-23T10:48:04;9.60;99.90
4002;DHT22;2015;48.670;9.060;2024-03-23T10:50:35;9.30;99.90
4002;DHT22;2015;48.670;9.060;2024-03-23T10:53:06;8.60;99.90
4002;DHT22;2015;48.670;9.060;2024-03-23T10:55:37;8.20;99.90
4002;DHT22;2015;48.670;9.060;2024-03-23T10:58:08;7.70;99.90
4002;DHT22;2015;48.670;9.060;2024-03-23T11:00:43;7.40;99.90
4002;DHT22;2015;48.670;9.060;2024-03-23T11:03:36;6.80;99.90
4002;DHT22;2015;48.670;9.060;2024-03-23T11:06:07;6.30;99.90
4002;DHT22;2015;48.670;9.060;2024-03-23T11:08:41;6.20;99.90
4002;DHT22;2015;48.670;9.060;2024-03-23T11:11:19;6.30;99.90
4002;DHT22;2015;48.670;9.060;2024-03-23T11:13:52;6.40;99.90
4002;DHT22;2015;48.670;9.060;2024-03-23T11:16:27;6.60;99.90
4002;DHT22;2015;48.670;9.060;2024-03-23T11:19:35;7.10;99.90
4002;DHT22;2015;48.670;9.060;2024-03-23T11:22:07;8.40;99.90
4002;DHT22;2015;48.670;9.060;2024-03-23T11:24:38;8.30;99.90
4002;DHT22;2015;48.670;9.060;2024-03-23T11:27:16;8.20;99.90
4002;DHT22;2015;48.670;9.060;2024-03-23T11:29:46;8.30;99.90
4002;DHT22;2015;48.670;9.060;2024-03-23T11:32:17;8.50;99.90
4002;DHT22;2015;48.670;9.060;2024-03-23T11:34:48;8.80;99.90
4002;DHT22;2015;48.670;9.060;2024-03-23T11:37:19;9.20;99.90
4002;DHT22;2015;48.670;9.060;2024-03-23T11:39:50;9.70;99.90
4002;DHT22;2015;48.670;9.060;2024-03-23T11:42:20;9.50;99.90
4002;DHT22;2015;48.670;9.060;2024-03-23T11:44:52;9.50;99.90
4002;DHT22;2015;48.670;9.060;2024-03-23T11:47:23;9.40;99.90
4002;DHT22;2015;48.670;9.060;2024-03-23T11:49:53;9.00;99.90
4002;DHT22;2015;48.670;9.060;2024-03-23T11:52:24;9.00;99.90
4002;DHT22;2015;48.670;9.060;2024-03-23T11:55:04;8.80;99.90
4002;DHT22;2015;48.670;9.060;2024-03-23T11:57:35;8.80;99.90
4002;DHT22;2015;48.670;9.060;2024-03-23T12:00:21;8.90;99.90
4002;DHT22;2015;48.670;9.060;2024-03-23T12:02:52;8.90;99.90
4002;DHT22;2015;48.670;9.060;2024-03-23T12:05:23;9.00;99.90
4002;DHT22;2015;48.670;9.060;2024-03-23T12:07:54;9.20;99.90
4002;DHT22;2015;48.670;9.060;2024-03-23T12:10:24;9.60;99.90
4002;DHT22;2015;48.670;9.060;2024-03-23T12:13:00;9.70;99.90
4002;DHT22;2015;48.670;9.060;2024-03-23T12:15:31;9.70;99.90
4002;DHT22;2015;48.670;9.060;2024-03-23T12:18:09;9.60;99.90
4002;DHT22;2015;48.670;9.060;2024-03-23T12:20:40;9.30;99.90
4002;DHT22;2015;48.670;9.060;2024-03-23T12:23:12;9.00;99.90
4002;DHT22;2015;48.670;9.060;2024-03-23T12:25:43;8.60;99.90
4002;DHT22;2015;48.670;9.060;2024-03-23T12:28:14;8.30;99.90
4002;DHT22;2015;48.670;9.060;2024-03-23T12:30:44;8.30;99.90
4002;DHT22;2015;48.670;9.060;2024-03-23T12:33:15;8.40;99.90
4002;DHT22;2015;48.670;9.060;2024-03-23T12:35:46;8.60;99.90
4002;DHT22;2015;48.670;9.060;2024-03-23T12:38:17;8.50;99.90
4002;DHT22;2015;48.670;9.060;2024-03-23T12:40:51;8.60;99.90
4002;DHT22;2015;48.670;9.060;2024-03-23T12:43:22;8.60;99.90
4002;DHT22;2015;48.670;9.060;2024-03-23T12:45:53;9.10;99.90
4002;DHT22;2015;48.670;9.060;2024-03-23T12:48:24;9.20;99.90
4002;DHT22;2015;48.670;9.060;2024-03-23T12:50:55;9.00;99.90
4002;DHT22;2015;48.670;9.060;2024-03-23T12:53:25;8.80;99.90
4002;DHT22;2015;48.670;9.060;2024-03-23T12:55:56;8.70;99.90
4002;DHT22;2015;48.670;9.060;2024-03-23T12:58:27;8.70;99.90
4002;DHT22;2015;48.670;9.060;2024-03-23T13:00:58;8.80;99.90
4002;DHT22;2015;48.670;9.060;2024-03-23T13:03:29;8.90;99.90
4002;DHT22;2015;48.670;9.060;2024-03-23T13:06:00;8.90;99.90
4002;DHT22;2015;48.670;9.060;2024-03-23T13:08:31;9.10;99.90
4002;DHT22;2015;48.670;9.060;2024-03-23T13:11:01;9.20;99.90
4002;DHT22;2015;48.670;9.060;2024-03-23T13:13:32;8.90;99.90
4002;DHT22;2015;48.670;9.060;2024-03-23T13:16:04;8.80;99.90
4002;DHT22;2015;48.670;9.060;2024-03-23T13:18:36;8.90;99.90
4002;DHT22;2015;48.670;9.060;2024-03-23T13:21:06;8.80;99.90
4002;DHT22;2015;48.670;9.060;2024-03-23T13:23:37;8.60;99.90
4002;DHT22;2015;48.670;9.060;2024-03-23T13:26:10;8.20;99.90
4002;DHT22;2015;48.670;9.060;2024-03-23T13:28:41;8.10;99.90
4002;DHT22;2015;48.670;9.060;2024-03-23T13:31:12;8.20;99.90
4002;DHT22;2015;48.670;9.060;2024-03-23T13:33:43;8.10;99.90
4002;DHT22;2015;48.670;9.060;2024-03-23T13:36:14;8.20;99.90
4002;DHT22;2015;48.670;9.060;2024-03-23T13:38:45;8.20;99.90
4002;DHT22;2015;48.670;9.060;2024-03-23T13:41:16;8.20;99.90
4002;DHT22;2015;48.670;9.060;2024-03-23T13:43:46;8.30;99.90
4002;DHT22;2015;48.670;9.060;2024-03-23T13:46:17;8.40;99.90
4002;DHT22;2015;48.670;9.060;2024-03-23T13:48:48;8.60;99.90
4002;DHT22;2015;48.670;9.060;2024-03-23T13:51:23;8.70;99.90
4002;DHT22;2015;48.670;9.060;2024-03-23T13:53:55;8.80;99.90
4002;DHT22;2015;48.670;9.060;2024-03-23T13:56:30;8.90;99.90
4002;DHT22;2015;48.670;9.060;2024-03-23T13:59:00;9.10;99.90
4002;DHT22;2015;48.670;9.060;2024-03-23T14:01:32;9.30;99.90
4002;DHT22;2015;48.670;9.060;2024-03-23T14:04:03;9.30;99.90
4002;DHT22;2015;48.670;9.060;2024-03-23T14:06:33;9.20;99.90
4002;DHT22;2015;48.670;9.060;2024-03-23T14:09:04;9.10;99.90
4002;DHT22;2015;48.670;9.060;2024-03-23T14:11:36;8.90;99.90
4002;DHT22;2015;48.670;9.060;2024-03-23T14:14:11;8.70;99.90
4002;DHT22;2015;48.670;9.060;2024-03-23T14:16:42;8.50;99.90
4002;DHT22;2015;48.670;9.060;2024-03-23T14:19:12;8.20;99.90
4002;DHT22;2015;48.670;9.060;2024-03-23T14:21:43;8.30;99.90
4002;DHT22;2015;48.670;9.060;2024-03-23T14:24:14;8.40;99.90
4002;DHT22;2015;48.670;9.060;2024-03-23T14:26:45;8.50;99.90
4002;DHT22;2015;48.670;9.060;2024-03-23T14:29:16;8.40;99.90
4002;DHT22;2015;48.670;9.060;2024-03-23T14:31:47;8.00;99.90
4002;DHT22;2015;48.670;9.060;2024-03-23T14:34:17;7.80;99.90
4002;DHT22;2015;48.670;9.060;2024-03-23T14:36:48;7.70;99.90
4002;DHT22;2015;48.670;9.060;2024-03-23T14:39:23;7.70;99.90
4002;DHT22;2015;48.670;9.060;2024-03-23T14:41:53;7.60;99.90
4002;DHT22;2015;48.670;9.060;2024-03-23T14:44:24;7.60;99.90
4002;DHT22;2015;48.670;9.060;2024-03-23T14:46:55;7.50;99.90
4002;DHT22;2015;48.670;9.060;2024-03-23T14:49:26;7.40;99.90
4002;DHT22;2015;48.670;9.060;2024-03-23T14:51:57;7.60;99.90
4002;DHT22;2015;48.670;9.060;2024-03-23T14:54:27;7.60;99.90
4002;DHT22;2015;48.670;9.060;2024-03-23T14:56:58;7.80;99.90
4002;DHT22;2015;48.670;9.060;2024-03-23T14:59:30;7.70;99.90
4002;DHT22;2015;48.670;9.060;2024-03-23T15:02:01;7.60;99.90
4002;DHT22;2015;48.670;9.060;2024-03-23T15:04:32;7.50;99.90
4002;DHT22;2015;48.670;9.060;2024-03-23T15:07:02;7.20;99.90
4002;DHT22;2015;48.670;9.060;2024-03-23T15:09:33;6.70;99.90
4002;DHT22;2015;48.670;9.060;2024-03-23T15:12:05;6.50;99.90
4002;DHT22;2015;48.670;9.060;2024-03-23T15:14:35;6.40;99.90
4002;DHT22;2015;48.670;9.060;2024-03-23T15:17:06;6.40;99.90
4002;DHT22;2015;48.670;9.060;2024-03-23T15:19:39;6.50;99.90
4002;DHT22;2015;48.670;9.060;2024-03-23T15:22:10;6.40;99.90
4002;DHT22;2015;48.670;9.060;2024-03-23T15:24:41;6.40;99.90
4002;DHT22;2015;48.670;9.060;2024-03-23T15:27:12;6.40;99.90
4002;DHT22;2015;48.670;9.060;2024-03-23T15:29:42;6.50;99.90
4002;DHT22;2015;48.670;9.060;2024-03-23T15:32:16;6.50;99.90
4002;DHT22;2015;48.670;9.060;2024-03-23T15:34:48;6.60;99.90
4002;DHT22;2015;48.670;9.060;2024-03-23T15:37:18;6.70;99.90
4002;DHT22;2015;48.670;9.060;2024-03-23T15:39:49;6.60;99.90
4002;DHT22;2015;48.670;9.060;2024-03-23T15:42:20;6.70;99.90
4002;DHT22;2015;48.670;9.060;2024-03-23T15:44:51;6.80;99.90
4002;DHT22;2015;48.670;9.060;2024-03-23T15:47:21;6.90;99.90
4002;DHT22;2015;48.670;9.060;2024-03-23T15:49:54;7.00;99.90
4002;DHT22;2015;48.670;9.060;2024-03-23T15:52:26;7.00;99.90
4002;DHT22;2015;48.670;9.060;2024-03-23T15:54:57;7.00;99.90
4002;DHT22;2015;48.670;9.060;2024-03-23T15:57:30;7.10;99.90
4002;DHT22;2015;48.670;9.060;2024-03-23T16:00:02;7.10;99.90
4002;DHT22;2015;48.670;9.060;2024-03-23T16:02:33;7.10;99.90
4002;DHT22;2015;48.670;9.060;2024-03-23T16:05:04;7.00;99.90
4002;DHT22;2015;48.670;9.060;2024-03-23T16:07:35;6.90;99.90
4002;DHT22;2015;48.670;9.060;2024-03-23T16:10:06;7.20;99.90
4002;DHT22;2015;48.670;9.060;2024-03-23T16:12:40;7.10;99.90
4002;DHT22;2015;48.670;9.060;2024-03-23T16:15:11;7.10;99.90
4002;DHT22;2015;48.670;9.060;2024-03-23T16:17:41;6.80;99.90
4002;DHT22;2015;48.670;9.060;2024-03-23T16:20:12;6.70;99.90
4002;DHT22;2015;48.670;9.060;2024-03-23T16:22:43;6.70;99.90
4002;DHT22;2015;48.670;9.060;2024-03-23T16:25:14;6.60;99.90
4002;DHT22;2015;48.670;9.060;2024-03-23T16:27:45;6.70;99.90
4002;DHT22;2015;48.670;9.060;2024-03-23T16:30:15;6.60;99.90
4002;DHT22;2015;48.670;9.060;2024-03-23T16:32:47;6.60;99.90
4002;DHT22;2015;48.670;9.060;2024-03-23T16:35:18;6.60;99.90
4002;DHT22;2015;48.670;9.060;2024-03-23T16:37:48;6.60;99.90
4002;DHT22;2015;48.670;9.060;2024-03-23T16:40:19;6.60;99.90
4002;DHT22;2015;48.670;9.060;2024-03-23T16:42:50;6.60;99.90
4002;DHT22;2015;48.670;9.060;2024-03-23T16:45:21;6.70;99.90
4002;DHT22;2015;48.670;9.060;2024-03-23T16:47:51;6.80;99.90
4002;DHT22;2015;48.670;9.060;2024-03-23T16:50:22;6.80;99.90
4002;DHT22;2015;48.670;9.060;2024-03-23T16:52:53;6.70;99.90
4002;DHT22;2015;48.670;9.060;2024-03-23T16:55:24;6.60;99.90
4002;DHT22;2015;48.670;9.060;2024-03-23T16:57:54;6.60;99.90
4002;DHT22;2015;48.670;9.060;2024-03-23T17:00:25;6.60;99.90
4002;DHT22;2015;48.670;9.060;2024-03-23T17:02:56;6.60;99.90
4002;DHT22;2015;48.670;9.060;2024-03-23T17:05:26;6.60;99.90
4002;DHT22;2015;48.670;9.060;2024-03-23T17:07:57;6.50;99.90
4002;DHT22;2015;48.670;9.060;2024-03-23T17:10:29;6.40;99.90
4002;DHT22;2015;48.670;9.060;2024-03-23T17:12:59;6.30;99.90
4002;DHT22;2015;48.670;9.060;2024-03-23T17:15:30;6.30;99.90
4002;DHT22;2015;48.670;9.060;2024-03-23T17:18:01;6.20;99.90
4002;DHT22;2015;48.670;9.060;2024-03-23T17:20:32;6.20;99.90
4002;DHT22;2015;48.670;9.060;2024-03-23T17:23:03;6.20;99.90
4002;DHT22;2015;48.670;9.060;2024-03-23T17:25:34;6.20;99.90
4002;DHT22;2015;48.670;9.060;2024-03-23T17:28:06;6.20;99.90
4002;DHT22;2015;48.670;9.060;2024-03-23T17:30:37;6.20;99.90
4002;DHT22;2015;48.670;9.060;2024-03-23T17:33:08;6.30;99.90
4002;DHT22;2015;48.670;9.060;2024-03-23T17:35:38;6.30;99.90